Terminal Aerodrome Forecast
Issued by NWS Cleveland, OH

Home | Current Version | Previous Version | Graphics & Text | Print | Product List | Glossary On
Versions: 1 2 3 4 5 6 7 8 9 10 11 12 13 14 15 16 17 18 19 20 21
231
FTUS41 KCLE 231948 AAB
TAFERI
TAF AMD
KERI 231948Z 2320/2418 32006KT P6SM VCSH SCT015 BKN040
      TEMPO 2320/2322 BKN020
     FM232200 30007KT P6SM SCT025 BKN080
     FM240500 22004KT P6SM BKN025
      TEMPO 2409/2413 4SM BR SCT005 OVC015=

USA.gov is the U.S. government's official web portal to all federal, state and local government web resources and services.